Terminal Aerodrome Forecast
Issued by NWS

Home | Current Version | Previous Version | Text Only | Print | Product List | Glossary On
Versions: 1 2 3 4 5 6 7 8 9 10 11 12 13 14
000
FTUS45 KABQ 241125
TAFSAF
TAF
KSAF 241125Z 2412/2512 02006KT P6SM SKC
     FM241700 21010KT P6SM SKC
     FM242000 21012G19KT P6SM FEW250
     FM250000 13022G32KT P6SM SCT150
     FM250200 14027G36KT P6SM SCT030 SCT120
     FM250800 15018G28KT P6SM SCT030 SCT120=

USA.gov is the U.S. government's official web portal to all federal, state and local government web resources and services.